createdAt,value
2022-08-22T00:02:45.270Z,58.67
2022-08-22T00:03:24.147Z,74.32
2022-08-22T00:04:24.133Z,73.01
2022-08-22T00:05:24.127Z,73.82
2022-08-22T00:06:24.113Z,73.01
2022-08-22T00:07:24.130Z,74.02
2022-08-22T00:08:24.103Z,73.22
2022-08-22T00:09:24.090Z,74.02
2022-08-22T00:10:25.582Z,74.02
2022-08-22T00:11:24.066Z,74.12
2022-08-22T00:12:24.074Z,74.12
2022-08-22T00:13:24.046Z,73.92
2022-08-22T00:14:24.026Z,72.71
2022-08-22T00:15:42.151Z,73.22
2022-08-22T00:16:24.016Z,74.73
2022-08-22T00:17:24.028Z,74.83
2022-08-22T00:18:23.988Z,73.52
2022-08-22T00:19:23.995Z,74.43
2022-08-22T00:20:26.122Z,72.95
2022-08-22T00:21:23.962Z,72.95
2022-08-22T00:22:23.976Z,74.16
2022-08-22T00:23:23.937Z,72.75
2022-08-22T00:24:23.933Z,74.66
2022-08-22T00:25:24.823Z,73.96
2022-08-22T00:26:23.904Z,74.46
2022-08-22T00:27:23.916Z,73.65
2022-08-22T00:28:23.887Z,72.85
2022-08-22T00:29:23.882Z,73.15
2022-08-22T00:30:23.856Z,73.85
2022-08-22T00:31:23.852Z,73.55
2022-08-22T00:32:23.864Z,73.05
2022-08-22T00:33:23.832Z,73.85
2022-08-22T00:34:23.815Z,74.26
2022-08-22T00:35:23.811Z,74.66
2022-08-22T00:36:23.794Z,74.36
2022-08-22T00:37:24.248Z,73.45
2022-08-22T00:38:23.790Z,74.66
2022-08-22T00:39:23.787Z,75.57
2022-08-22T00:40:23.772Z,75.16
2022-08-22T00:41:23.763Z,75.47
2022-08-22T00:42:31.386Z,76.01
2022-08-22T00:43:23.766Z,74.69
2022-08-22T00:44:23.730Z,75.31
2022-08-22T00:45:23.719Z,75.60
2022-08-22T00:46:23.705Z,76.01
2022-08-22T00:47:23.716Z,74.69
2022-08-22T00:48:23.692Z,75.40
2022-08-22T00:49:24.384Z,75.51
2022-08-22T00:50:23.676Z,75.91
2022-08-22T00:51:23.655Z,75.91
2022-08-22T00:52:23.667Z,76.35
2022-08-22T00:53:23.634Z,75.95
2022-08-22T00:54:23.622Z,74.84
2022-08-22T00:55:23.619Z,76.04
2022-08-22T00:56:23.600Z,77.26
2022-08-22T00:57:23.608Z,75.84
2022-08-22T00:58:23.582Z,76.04
2022-08-22T00:59:24.262Z,75.44
2022-08-22T01:00:23.561Z,76.86
2022-08-22T01:01:23.602Z,76.25
2022-08-22T01:02:23.554Z,76.55
2022-08-22T01:03:23.529Z,76.95
2022-08-22T01:04:23.514Z,76.45
2022-08-22T01:05:23.512Z,77.29
2022-08-22T01:06:23.493Z,77.29
2022-08-22T01:07:23.507Z,77.80
2022-08-22T01:08:23.476Z,76.59
2022-08-22T01:09:23.467Z,78.50
2022-08-22T01:10:23.452Z,77.70
2022-08-22T01:11:23.449Z,77.70
2022-08-22T01:12:23.456Z,78.20
2022-08-22T01:13:23.419Z,77.90
2022-08-22T01:14:35.057Z,78.30
2022-08-22T01:15:23.406Z,77.50
2022-08-22T01:16:23.395Z,77.64
2022-08-22T01:17:23.398Z,77.84
2022-08-22T01:18:23.373Z,77.73
2022-08-22T01:19:23.360Z,77.53
2022-08-22T01:20:23.356Z,78.04
2022-08-22T01:21:24.389Z,78.14
2022-08-22T01:22:23.353Z,77.94
2022-08-22T01:23:23.314Z,77.64
2022-08-22T01:24:24.126Z,78.04
2022-08-22T01:25:26.096Z,79.55
2022-08-22T01:26:23.288Z,78.38
2022-08-22T01:27:23.295Z,78.28
2022-08-22T01:28:23.345Z,78.08
2022-08-22T01:29:28.401Z,78.08
2022-08-22T01:30:23.377Z,78.38
2022-08-22T01:31:23.233Z,78.28
2022-08-22T01:32:23.248Z,78.08
2022-08-22T01:33:23.213Z,77.47
2022-08-22T01:34:23.203Z,78.17
2022-08-22T01:35:23.189Z,78.48
2022-08-22T01:36:23.183Z,78.58
2022-08-22T01:37:23.202Z,78.78
2022-08-22T01:38:23.160Z,78.88
2022-08-22T01:39:23.154Z,79.08
2022-08-22T01:40:23.231Z,78.99
2022-08-22T01:41:23.125Z,79.29
2022-08-22T01:42:23.154Z,78.88
2022-08-22T01:43:23.108Z,79.39
2022-08-22T01:44:23.105Z,80.10
2022-08-22T01:45:23.082Z,79.90
2022-08-22T01:46:23.077Z,80.00
2022-08-22T01:47:23.083Z,79.69
2022-08-22T01:48:23.054Z,78.88
2022-08-22T01:49:23.043Z,80.10
2022-08-22T01:50:23.038Z,79.39
2022-08-22T01:51:23.024Z,78.58
2022-08-22T01:52:23.031Z,79.08
2022-08-22T01:53:23.000Z,77.77
2022-08-22T01:54:22.990Z,79.19
2022-08-22T01:55:22.984Z,78.17
2022-08-22T01:56:22.978Z,78.48
2022-08-22T01:57:22.984Z,77.17
2022-08-22T01:58:22.954Z,77.97
2022-08-22T01:59:22.936Z,78.78
2022-08-22T02:00:34.907Z,78.08
2022-08-22T02:01:22.965Z,78.88
2022-08-22T02:02:22.929Z,78.58
2022-08-22T02:03:22.896Z,78.88
2022-08-22T02:04:22.890Z,78.68
2022-08-22T02:05:22.873Z,78.48
2022-08-22T02:06:22.868Z,79.59
2022-08-22T02:07:26.506Z,79.29
2022-08-22T02:08:22.855Z,79.39
2022-08-22T02:09:22.829Z,79.29
2022-08-22T02:10:22.830Z,78.88
2022-08-22T02:11:22.815Z,79.39
2022-08-22T02:12:22.822Z,80.20
2022-08-22T02:13:22.788Z,79.19
2022-08-22T02:14:22.787Z,78.88
2022-08-22T02:15:22.768Z,79.59
2022-08-22T02:16:22.758Z,79.29
2022-08-22T02:17:22.772Z,79.69
2022-08-22T02:18:22.745Z,79.08
2022-08-22T02:19:22.732Z,79.29
2022-08-22T02:20:22.719Z,79.49
2022-08-22T02:21:22.819Z,79.53
2022-08-22T02:22:22.715Z,79.43
2022-08-22T02:23:22.684Z,79.02
2022-08-22T02:24:22.676Z,78.62
2022-08-22T02:25:22.659Z,79.63
2022-08-22T02:26:22.659Z,79.83
2022-08-22T02:27:22.669Z,79.22
2022-08-22T02:28:22.637Z,79.93
2022-08-22T02:29:22.622Z,79.73
2022-08-22T02:30:22.614Z,79.43
2022-08-22T02:31:22.604Z,80.04
2022-08-22T02:32:22.591Z,80.24
2022-08-22T02:33:22.604Z,80.44
2022-08-22T02:34:22.595Z,80.34
2022-08-22T02:35:22.557Z,80.13
2022-08-22T02:36:22.548Z,80.27
2022-08-22T02:37:22.537Z,80.58
2022-08-22T02:38:22.566Z,79.97
2022-08-22T02:39:22.512Z,80.68
2022-08-22T02:40:22.614Z,80.58
2022-08-22T02:41:22.500Z,80.07
2022-08-22T02:42:22.507Z,80.98
2022-08-22T02:43:22.472Z,80.68
2022-08-22T02:44:22.467Z,80.98
2022-08-22T02:45:22.452Z,80.58
2022-08-22T02:46:22.446Z,80.98
2022-08-22T02:47:22.457Z,81.39
2022-08-22T02:48:22.428Z,80.58
2022-08-22T02:49:22.415Z,81.39
2022-08-22T02:50:22.408Z,81.29
2022-08-22T02:51:22.388Z,81.23
2022-08-22T02:52:22.403Z,80.72
2022-08-22T02:53:22.366Z,80.72
2022-08-22T02:54:22.371Z,80.92
2022-08-22T02:55:22.352Z,80.52
2022-08-22T02:56:22.345Z,80.72
2022-08-22T02:57:22.438Z,81.73
2022-08-22T02:58:22.324Z,80.62
2022-08-22T02:59:22.303Z,80.72
2022-08-22T03:00:31.701Z,81.52
2022-08-22T03:01:22.366Z,80.52
2022-08-22T03:02:22.304Z,81.63
2022-08-22T03:03:22.267Z,81.63
2022-08-22T03:04:22.260Z,81.32
2022-08-22T03:05:22.242Z,82.03
2022-08-22T03:06:22.277Z,81.93
2022-08-22T03:07:22.226Z,81.73
2022-08-22T03:08:22.240Z,81.83
2022-08-22T03:09:22.201Z,81.43
2022-08-22T03:10:22.200Z,81.12
2022-08-22T03:11:22.179Z,82.24
2022-08-22T03:12:22.183Z,81.83
2022-08-22T03:13:22.185Z,81.83
2022-08-22T03:14:22.162Z,81.73
2022-08-22T03:15:22.135Z,82.54
2022-08-22T03:16:22.135Z,81.63
2022-08-22T03:17:22.119Z,81.32
2022-08-22T03:18:22.130Z,81.77
2022-08-22T03:19:22.095Z,82.28
2022-08-22T03:20:22.094Z,81.77
2022-08-22T03:21:22.079Z,82.38
2022-08-22T03:22:22.070Z,82.38
2022-08-22T03:23:22.074Z,82.38
2022-08-22T03:24:22.048Z,82.28
2022-08-22T03:25:22.036Z,82.48
2022-08-22T03:26:22.039Z,82.38
2022-08-22T03:27:32.385Z,82.48
2022-08-22T03:28:22.093Z,82.58
2022-08-22T03:29:21.992Z,82.58
2022-08-22T03:30:21.982Z,83.09
2022-08-22T03:31:21.974Z,82.58
2022-08-22T03:32:21.991Z,82.11
2022-08-22T03:33:21.949Z,81.40
2022-08-22T03:34:21.951Z,81.10
2022-08-22T03:35:21.934Z,79.68
2022-08-22T03:36:21.928Z,80.08
2022-08-22T03:37:21.935Z,79.78
2022-08-22T03:38:21.902Z,80.19
2022-08-22T03:39:21.888Z,81.30
2022-08-22T03:40:21.963Z,80.90
2022-08-22T03:41:21.874Z,80.59
2022-08-22T03:42:21.881Z,81.40
2022-08-22T03:43:21.848Z,81.85
2022-08-22T03:44:21.844Z,82.25
2022-08-22T03:45:21.827Z,82.05
2022-08-22T03:46:21.818Z,80.83
2022-08-22T03:47:21.848Z,81.34
2022-08-22T03:48:21.799Z,81.64
2022-08-22T03:49:21.785Z,81.27
2022-08-22T03:50:21.779Z,81.48
2022-08-22T03:51:21.769Z,81.58
2022-08-22T03:52:21.795Z,83.10
2022-08-22T03:53:21.743Z,83.91
2022-08-22T03:54:21.734Z,83.91
2022-08-22T03:55:21.717Z,83.91
2022-08-22T03:56:21.715Z,84.01
2022-08-22T03:57:21.697Z,84.22
2022-08-22T03:58:28.039Z,84.83
2022-08-22T03:59:21.690Z,85.33
2022-08-22T04:00:21.671Z,85.24
2022-08-22T04:01:21.662Z,85.74
2022-08-22T04:02:42.575Z,85.03
2022-08-22T04:03:21.672Z,85.94
2022-08-22T04:04:21.640Z,85.24
2022-08-22T04:05:21.626Z,84.63
2022-08-22T04:06:21.612Z,84.93
2022-08-22T04:07:31.691Z,85.13
2022-08-22T04:08:26.009Z,85.94
2022-08-22T04:09:21.586Z,84.93
2022-08-22T04:10:21.567Z,84.83
2022-08-22T04:11:21.566Z,84.83
2022-08-22T04:12:21.576Z,84.72
2022-08-22T04:13:21.536Z,84.32
2022-08-22T04:14:21.527Z,84.01
2022-08-22T04:15:21.509Z,84.63
2022-08-22T04:16:21.515Z,84.89
2022-08-22T04:17:21.512Z,83.98
2022-08-22T04:18:21.502Z,84.28
2022-08-22T04:19:21.475Z,83.87
2022-08-22T04:20:21.462Z,83.98
2022-08-22T04:21:21.465Z,84.28
2022-08-22T04:22:21.466Z,83.98
2022-08-22T04:23:21.428Z,83.87
2022-08-22T04:24:21.421Z,84.28
2022-08-22T04:25:21.411Z,83.77
2022-08-22T04:26:21.402Z,84.22
2022-08-22T04:27:21.410Z,84.32
2022-08-22T04:28:21.381Z,84.12
2022-08-22T04:29:21.367Z,83.91
2022-08-22T04:30:21.360Z,83.51
2022-08-22T04:31:21.349Z,83.40
2022-08-22T04:32:21.361Z,83.40
2022-08-22T04:33:21.327Z,83.61
2022-08-22T04:34:21.320Z,84.42
2022-08-22T04:35:21.313Z,84.12
2022-08-22T04:36:21.297Z,83.91
2022-08-22T04:37:21.305Z,84.32
2022-08-22T04:38:21.277Z,84.12
2022-08-22T04:39:21.279Z,84.12
2022-08-22T04:40:21.327Z,84.63
2022-08-22T04:41:21.243Z,85.44
2022-08-22T04:42:36.673Z,84.83
2022-08-22T04:43:21.228Z,85.33
2022-08-22T04:44:21.221Z,85.13
2022-08-22T04:45:21.209Z,85.84
2022-08-22T04:46:21.205Z,85.03
2022-08-22T04:47:21.201Z,85.24
2022-08-22T04:48:21.181Z,85.13
2022-08-22T04:49:21.233Z,85.53
2022-08-22T04:50:21.163Z,84.93
2022-08-22T04:51:21.158Z,85.13
2022-08-22T04:52:21.164Z,85.33
2022-08-22T04:53:21.117Z,84.72
2022-08-22T04:54:21.111Z,84.78
2022-08-22T04:55:21.101Z,83.51
2022-08-22T04:56:21.093Z,84.99
2022-08-22T04:57:21.099Z,84.78
2022-08-22T04:58:21.070Z,84.69
2022-08-22T04:59:21.052Z,84.78
2022-08-22T05:00:21.046Z,84.58
2022-08-22T05:01:21.119Z,84.89
2022-08-22T05:02:21.046Z,83.67
2022-08-22T05:03:21.013Z,84.99
2022-08-22T05:04:21.009Z,84.28
2022-08-22T05:05:21.015Z,83.67
2022-08-22T05:06:20.992Z,83.77
2022-08-22T05:07:20.992Z,84.14
2022-08-22T05:08:20.968Z,82.72
2022-08-22T05:09:20.951Z,83.73
2022-08-22T05:10:20.947Z,83.43
2022-08-22T05:11:20.927Z,83.03
2022-08-22T05:12:20.943Z,83.73
2022-08-22T05:13:20.907Z,83.03
2022-08-22T05:14:20.903Z,83.94
2022-08-22T05:15:23.315Z,83.63
2022-08-22T05:16:20.885Z,82.82
2022-08-22T05:17:20.883Z,82.82
2022-08-22T05:18:20.865Z,82.92
2022-08-22T05:19:28.368Z,82.92
2022-08-22T05:20:20.845Z,83.12
2022-08-22T05:21:20.826Z,83.33
2022-08-22T05:22:20.840Z,83.12
2022-08-22T05:23:20.847Z,82.62
2022-08-22T05:24:20.799Z,83.43
2022-08-22T05:25:20.779Z,83.33
2022-08-22T05:26:20.785Z,83.53
2022-08-22T05:27:20.762Z,83.43
2022-08-22T05:28:20.775Z,83.94
2022-08-22T05:29:20.746Z,84.34
2022-08-22T05:30:20.728Z,84.14
2022-08-22T05:31:23.219Z,84.04
2022-08-22T05:32:20.710Z,83.94
2022-08-22T05:33:20.725Z,84.44
2022-08-22T05:34:20.693Z,84.14
2022-08-22T05:35:20.681Z,83.63
2022-08-22T05:36:20.665Z,83.53
2022-08-22T05:37:20.663Z,84.55
2022-08-22T05:38:20.677Z,84.55
2022-08-22T05:39:20.644Z,84.14
2022-08-22T05:40:20.721Z,83.94
2022-08-22T05:41:20.621Z,83.73
2022-08-22T05:42:20.602Z,84.34
2022-08-22T05:43:20.619Z,84.55
2022-08-22T05:44:20.581Z,83.53
2022-08-22T05:45:20.579Z,83.33
2022-08-22T05:46:20.560Z,84.14
2022-08-22T05:47:20.579Z,83.43
2022-08-22T05:48:20.541Z,82.62
2022-08-22T05:49:20.545Z,83.80
2022-08-22T05:50:20.519Z,83.29
2022-08-22T05:51:20.512Z,83.39
2022-08-22T05:52:20.518Z,81.26
2022-08-22T05:53:20.492Z,82.38
2022-08-22T05:54:20.479Z,81.77
2022-08-22T05:55:20.472Z,82.89
2022-08-22T05:56:20.455Z,82.68
2022-08-22T05:57:20.472Z,82.54
2022-08-22T05:58:21.688Z,80.72
2022-08-22T05:59:20.429Z,80.92
2022-08-22T06:00:21.626Z,81.23
2022-08-22T06:01:20.467Z,80.72
2022-08-22T06:02:20.411Z,80.88
2022-08-22T06:03:20.388Z,78.66
2022-08-22T06:04:20.370Z,80.13
2022-08-22T06:05:20.368Z,79.13
2022-08-22T06:06:20.375Z,79.33
2022-08-22T06:07:20.367Z,77.97
2022-08-22T06:08:20.334Z,78.24
2022-08-22T06:09:20.329Z,77.64
2022-08-22T06:10:20.309Z,76.89
2022-08-22T06:11:20.306Z,77.29
2022-08-22T06:12:22.084Z,75.13
2022-08-22T06:13:24.517Z,75.95
2022-08-22T06:14:20.272Z,74.69
2022-08-22T06:15:20.935Z,74.80
2022-08-22T06:16:21.122Z,73.25
2022-08-22T06:17:20.258Z,73.01
2022-08-22T06:18:20.226Z,72.91
2022-08-22T06:19:20.391Z,74.69
2022-08-22T06:20:20.206Z,73.35
2022-08-22T06:21:20.203Z,70.62
2022-08-22T06:22:20.213Z,70.70
2022-08-22T06:23:20.176Z,69.45
2022-08-22T06:24:20.164Z,69.15
2022-08-22T06:25:20.176Z,68.41
2022-08-22T06:26:21.391Z,68.21
2022-08-22T06:27:20.155Z,68.78
2022-08-22T06:28:20.128Z,67.98
2022-08-22T06:29:20.123Z,68.35
2022-08-22T06:30:20.127Z,67.24
2022-08-22T06:31:20.118Z,67.71
2022-08-22T06:32:30.608Z,66.08
2022-08-22T06:33:20.083Z,64.97
2022-08-22T06:34:20.058Z,64.94
2022-08-22T06:35:20.059Z,63.73
2022-08-22T06:36:20.602Z,64.61
2022-08-22T06:37:20.033Z,65.71
2022-08-22T06:38:20.016Z,65.31
2022-08-22T06:39:20.024Z,65.21
2022-08-22T06:40:20.084Z,62.17
2022-08-22T06:41:20.008Z,62.47
2022-08-22T06:42:19.980Z,62.14
2022-08-22T06:43:19.970Z,60.84
2022-08-22T06:44:19.955Z,61.54
2022-08-22T06:45:19.949Z,60.14
2022-08-22T06:46:19.954Z,61.14
2022-08-22T06:47:19.928Z,60.33
2022-08-22T06:48:19.918Z,62.54
2022-08-22T06:49:19.906Z,63.71
2022-08-22T06:50:19.943Z,60.68
2022-08-22T06:51:19.914Z,60.28
2022-08-22T06:52:19.884Z,62.78
2022-08-22T06:53:19.876Z,60.85
2022-08-22T06:54:19.848Z,60.85
2022-08-22T06:55:19.844Z,60.35
2022-08-22T06:56:19.864Z,58.32
2022-08-22T06:57:19.822Z,58.52
2022-08-22T06:58:19.816Z,59.92
2022-08-22T06:59:19.801Z,62.02
2022-08-22T07:00:19.801Z,59.39
2022-08-22T07:01:19.846Z,59.99
2022-08-22T07:02:19.786Z,59.49
2022-08-22T07:03:19.757Z,60.10
2022-08-22T07:04:19.742Z,58.80
2022-08-22T07:05:19.738Z,59.06
2022-08-22T07:06:19.727Z,60.06
2022-08-22T07:07:20.561Z,59.86
2022-08-22T07:08:19.703Z,59.53
2022-08-22T07:09:19.695Z,55.94
2022-08-22T07:10:19.682Z,56.84
2022-08-22T07:11:19.673Z,56.84
2022-08-22T07:12:19.681Z,57.76
2022-08-22T07:13:19.658Z,57.57
2022-08-22T07:14:19.642Z,59.36
2022-08-22T07:15:19.634Z,58.47
2022-08-22T07:16:19.622Z,58.26
2022-08-22T07:17:19.637Z,59.66
2022-08-22T07:18:19.602Z,57.89
2022-08-22T07:19:19.598Z,59.69
2022-08-22T07:20:19.582Z,58.59
2022-08-22T07:21:19.589Z,59.82
2022-08-22T07:22:19.557Z,58.92
2022-08-22T07:23:19.552Z,59.72
2022-08-22T07:24:19.538Z,59.55
2022-08-22T07:25:19.533Z,59.85
2022-08-22T07:26:19.536Z,62.68
2022-08-22T07:27:19.511Z,64.09
2022-08-22T07:28:19.495Z,61.98
2022-08-22T07:29:19.491Z,62.28
2022-08-22T07:30:27.644Z,63.48
2022-08-22T07:31:19.489Z,60.88
2022-08-22T07:32:19.455Z,61.18
2022-08-22T07:33:26.662Z,63.11
2022-08-22T07:34:19.438Z,62.78
2022-08-22T07:35:19.426Z,63.68
2022-08-22T07:36:19.438Z,63.15
2022-08-22T07:37:19.407Z,63.25
2022-08-22T07:38:19.392Z,63.22
2022-08-22T07:39:19.403Z,62.79
2022-08-22T07:40:19.401Z,60.16
2022-08-22T07:41:19.375Z,60.77
2022-08-22T07:42:19.372Z,59.14
2022-08-22T07:43:19.350Z,60.24
2022-08-22T07:44:19.375Z,59.51
2022-08-22T07:45:19.322Z,57.51
2022-08-22T07:46:19.309Z,59.78
2022-08-22T07:47:26.241Z,58.18
2022-08-22T07:48:25.457Z,57.95
2022-08-22T07:49:19.308Z,54.64
2022-08-22T07:50:19.267Z,54.44
2022-08-22T07:51:19.263Z,55.24
2022-08-22T07:52:19.917Z,54.11
2022-08-22T07:53:19.243Z,55.51
2022-08-22T07:54:19.228Z,56.70
2022-08-22T07:55:19.233Z,54.11
2022-08-22T07:56:19.226Z,55.08
2022-08-22T07:57:19.228Z,53.89
2022-08-22T07:58:19.184Z,54.36
2022-08-22T07:59:19.188Z,53.94
2022-08-22T08:00:19.166Z,51.15
2022-08-22T08:01:19.263Z,51.32
2022-08-22T08:02:19.142Z,52.51
2022-08-22T08:03:19.138Z,51.12
2022-08-22T08:04:19.121Z,51.72
2022-08-22T08:05:19.115Z,49.31
2022-08-22T08:06:19.119Z,50.48
2022-08-22T08:07:19.102Z,50.48
2022-08-22T08:08:19.078Z,49.26
2022-08-22T08:09:19.079Z,47.75
2022-08-22T08:10:19.065Z,48.32
2022-08-22T08:11:19.071Z,47.73
2022-08-22T08:12:19.038Z,47.43
2022-08-22T08:13:19.032Z,46.71
2022-08-22T08:14:19.019Z,47.43
2022-08-22T08:15:19.012Z,49.41
2022-08-22T08:16:19.019Z,48.52
2022-08-22T08:17:19.004Z,48.60
2022-08-22T08:18:18.979Z,47.80
2022-08-22T08:19:18.971Z,46.09
2022-08-22T08:20:18.958Z,46.59
2022-08-22T08:21:18.969Z,46.07
2022-08-22T08:22:18.933Z,45.97
2022-08-22T08:23:18.926Z,45.65
2022-08-22T08:24:18.952Z,45.75
2022-08-22T08:25:18.919Z,45.65
2022-08-22T08:26:18.915Z,46.15
2022-08-22T08:27:18.886Z,46.45
2022-08-22T08:28:18.871Z,44.76
2022-08-22T08:29:18.868Z,44.74
2022-08-22T08:30:18.859Z,44.45
2022-08-22T08:31:18.867Z,44.37
2022-08-22T08:32:18.835Z,43.77
2022-08-22T08:33:25.674Z,44.17
2022-08-22T08:34:18.827Z,44.27
2022-08-22T08:35:18.804Z,44.07
2022-08-22T08:36:18.811Z,44.67
2022-08-22T08:37:18.787Z,44.96
2022-08-22T08:38:18.771Z,46.57
2022-08-22T08:39:18.763Z,45.85
2022-08-22T08:40:18.803Z,45.16
2022-08-22T08:41:22.513Z,45.75
2022-08-22T08:42:18.734Z,44.56
2022-08-22T08:43:18.741Z,42.68
2022-08-22T08:44:18.714Z,43.67
2022-08-22T08:45:18.716Z,43.67
2022-08-22T08:46:18.705Z,43.28
2022-08-22T08:47:18.677Z,43.57
2022-08-22T08:48:18.666Z,44.67
2022-08-22T08:49:18.659Z,44.46
2022-08-22T08:50:18.649Z,45.43
2022-08-22T08:51:18.663Z,44.35
2022-08-22T08:52:18.633Z,44.74
2022-08-22T08:53:18.615Z,45.43
2022-08-22T08:54:18.605Z,44.94
2022-08-22T08:55:19.780Z,45.01
2022-08-22T08:56:19.857Z,46.30
2022-08-22T08:57:18.579Z,46.50
2022-08-22T08:58:18.560Z,44.70
2022-08-22T08:59:18.554Z,43.80
2022-08-22T09:00:18.539Z,43.02
2022-08-22T09:01:19.418Z,43.49
2022-08-22T09:02:20.606Z,43.79
2022-08-22T09:03:24.051Z,45.17
2022-08-22T09:04:18.507Z,45.47
2022-08-22T09:05:19.591Z,43.37
2022-08-22T09:06:18.474Z,43.66
2022-08-22T09:07:18.491Z,44.26
2022-08-22T09:08:18.547Z,45.17
2022-08-22T09:09:18.452Z,45.45
2022-08-22T09:10:18.807Z,44.56
2022-08-22T09:11:18.429Z,42.56
2022-08-22T09:12:18.446Z,42.96
2022-08-22T09:13:18.407Z,43.73
2022-08-22T09:14:18.457Z,42.54
2022-08-22T09:15:18.387Z,43.13
2022-08-22T09:16:18.743Z,44.51
2022-08-22T09:17:18.394Z,42.44
2022-08-22T09:18:18.475Z,43.55
2022-08-22T09:19:18.348Z,43.92
2022-08-22T09:20:19.579Z,43.55
2022-08-22T09:21:27.965Z,44.04
2022-08-22T09:22:18.341Z,43.57
2022-08-22T09:23:18.312Z,45.05
2022-08-22T09:24:18.292Z,44.58
2022-08-22T09:25:18.285Z,44.78
2022-08-22T09:26:18.277Z,46.38
2022-08-22T09:27:18.286Z,47.39
2022-08-22T09:28:18.252Z,46.67
2022-08-22T09:29:18.244Z,47.78
2022-08-22T09:30:18.233Z,46.89
2022-08-22T09:31:33.087Z,47.39
2022-08-22T09:32:19.125Z,46.50
2022-08-22T09:33:18.202Z,47.19
2022-08-22T09:34:23.731Z,47.69
2022-08-22T09:35:18.667Z,47.69
2022-08-22T09:36:18.169Z,47.77
2022-08-22T09:37:18.186Z,46.18
2022-08-22T09:38:18.153Z,46.28
2022-08-22T09:39:18.148Z,47.89
2022-08-22T09:41:18.139Z,48.28
2022-08-22T09:42:18.141Z,46.70
2022-08-22T09:43:21.049Z,47.52
2022-08-22T09:44:18.092Z,47.71
2022-08-22T09:45:18.087Z,47.00
2022-08-22T09:46:18.663Z,46.80
2022-08-22T09:47:18.076Z,47.71
2022-08-22T09:48:18.058Z,48.01
2022-08-22T09:49:18.043Z,47.93
2022-08-22T09:50:18.037Z,48.15
2022-08-22T09:51:31.545Z,48.45
2022-08-22T09:52:33.150Z,48.35
2022-08-22T09:53:18.002Z,48.15
2022-08-22T09:54:18.621Z,47.86
2022-08-22T09:55:17.978Z,49.15
2022-08-22T09:56:17.975Z,48.47
2022-08-22T09:57:17.984Z,48.35
2022-08-22T09:58:17.949Z,48.27
2022-08-22T09:59:17.936Z,49.34
2022-08-22T10:00:17.928Z,48.55
2022-08-22T10:01:18.002Z,49.54
2022-08-22T10:02:17.927Z,48.94
2022-08-22T10:03:17.896Z,49.15
2022-08-22T10:04:19.534Z,49.44
2022-08-22T10:05:40.282Z,50.60
2022-08-22T10:06:17.873Z,49.00
2022-08-22T10:07:17.871Z,47.22
2022-08-22T10:08:19.736Z,49.37
2022-08-22T10:09:17.829Z,47.59
2022-08-22T10:10:17.826Z,47.07
2022-08-22T10:11:18.568Z,47.09
2022-08-22T10:12:17.832Z,48.38
2022-08-22T10:13:17.789Z,48.58
2022-08-22T10:14:22.230Z,48.08
2022-08-22T10:15:17.774Z,47.99
2022-08-22T10:16:17.763Z,47.78
2022-08-22T10:17:21.533Z,47.86
2022-08-22T10:18:17.762Z,46.48
2022-08-22T10:19:18.042Z,48.93
2022-08-22T10:20:17.729Z,47.74
2022-08-22T10:21:17.710Z,46.06
2022-08-22T10:22:17.721Z,46.36
2022-08-22T10:23:17.686Z,47.44
2022-08-22T10:24:25.457Z,46.95
2022-08-22T10:25:18.569Z,46.66
2022-08-22T10:26:23.064Z,46.66
2022-08-22T10:27:17.674Z,45.84
2022-08-22T10:28:17.642Z,45.96
2022-08-22T10:29:17.634Z,46.97
2022-08-22T10:30:17.618Z,48.36
2022-08-22T10:31:18.195Z,48.16
2022-08-22T10:32:17.619Z,47.77
2022-08-22T10:33:17.589Z,47.74
2022-08-22T10:34:17.582Z,47.25
2022-08-22T10:35:17.572Z,45.74
2022-08-22T10:36:17.565Z,45.54
2022-08-22T10:37:17.569Z,45.45
2022-08-22T10:38:17.556Z,45.47
2022-08-22T10:39:17.526Z,44.48
2022-08-22T10:40:17.605Z,44.48
2022-08-22T10:41:17.504Z,45.86
2022-08-22T10:42:18.672Z,46.38
2022-08-22T10:43:17.482Z,47.66
2022-08-22T10:44:17.476Z,46.58
2022-08-22T10:45:35.219Z,43.59
2022-08-22T10:46:17.468Z,44.38
2022-08-22T10:47:18.132Z,44.58
2022-08-22T10:48:17.441Z,44.78
2022-08-22T10:49:18.058Z,45.76
2022-08-22T10:50:17.474Z,47.34
2022-08-22T10:51:17.400Z,45.45
2022-08-22T10:52:17.423Z,48.51
2022-08-22T10:53:17.416Z,46.81
2022-08-22T10:54:20.080Z,44.51
2022-08-22T10:55:17.361Z,43.70
2022-08-22T10:56:17.355Z,44.20
2022-08-22T10:57:20.831Z,44.37
2022-08-22T10:58:17.343Z,44.57
2022-08-22T10:59:17.323Z,43.52
2022-08-22T11:00:17.409Z,43.65
2022-08-22T11:01:38.020Z,45.47
2022-08-22T11:02:17.318Z,45.09
2022-08-22T11:03:21.438Z,45.81
2022-08-22T11:04:17.288Z,46.62
2022-08-22T11:05:17.259Z,48.40
2022-08-22T11:06:17.269Z,48.60
2022-08-22T11:07:17.267Z,46.82
2022-08-22T11:08:17.232Z,47.22
2022-08-22T11:09:17.223Z,46.52
2022-08-22T11:10:17.266Z,47.29
2022-08-22T11:11:17.673Z,45.41
2022-08-22T11:12:17.208Z,45.12
2022-08-22T11:13:17.245Z,45.71
2022-08-22T11:14:17.183Z,46.89
2022-08-22T11:15:27.266Z,46.67
2022-08-22T11:16:17.161Z,47.66
2022-08-22T11:17:28.263Z,44.68
2022-08-22T11:18:17.138Z,43.19
2022-08-22T11:19:17.120Z,41.91
2022-08-22T11:20:17.112Z,43.07
2022-08-22T11:21:17.097Z,44.75
2022-08-22T11:22:17.108Z,43.17
2022-08-22T11:23:17.080Z,42.07
2022-08-22T11:24:17.761Z,40.69
2022-08-22T11:25:23.775Z,42.76
2022-08-22T11:26:30.018Z,42.96
2022-08-22T11:27:17.739Z,42.66
2022-08-22T11:28:17.559Z,41.87
2022-08-22T11:29:17.011Z,42.14
2022-08-22T11:30:18.682Z,40.37
2022-08-22T11:31:16.992Z,42.74
2022-08-22T11:32:17.011Z,41.57
2022-08-22T11:33:16.981Z,41.08
2022-08-22T11:34:16.968Z,40.78
2022-08-22T11:35:16.951Z,42.85
2022-08-22T11:36:17.401Z,42.85
2022-08-22T11:37:16.955Z,41.38
2022-08-22T11:38:16.928Z,41.28
2022-08-22T11:39:18.625Z,42.83
2022-08-22T11:40:17.056Z,45.40
2022-08-22T11:41:16.890Z,41.55
2022-08-22T11:42:21.796Z,41.46
2022-08-22T11:43:18.363Z,42.82
2022-08-22T11:44:16.863Z,39.86
2022-08-22T11:45:16.901Z,41.04
2022-08-22T11:46:19.934Z,38.95
2022-08-22T11:47:16.861Z,38.85
2022-08-22T11:48:16.822Z,39.56
2022-08-22T11:49:16.826Z,42.32
2022-08-22T11:50:16.896Z,40.94
2022-08-22T11:51:16.787Z,38.77
2022-08-22T11:52:16.809Z,39.76
2022-08-22T11:53:16.766Z,41.43
2022-08-22T11:54:16.760Z,39.56
2022-08-22T11:55:16.756Z,38.45
2022-08-22T11:56:16.743Z,37.87
2022-08-22T11:57:16.745Z,37.96
2022-08-22T11:58:16.721Z,38.26
2022-08-22T11:59:16.705Z,40.25
2022-08-22T12:00:16.699Z,38.16
2022-08-22T12:01:18.354Z,38.75
2022-08-22T12:02:16.700Z,38.45
2022-08-22T12:03:16.665Z,37.19
2022-08-22T12:04:16.663Z,38.18
2022-08-22T12:05:20.206Z,37.98
2022-08-22T12:06:16.643Z,38.28
2022-08-22T12:07:16.645Z,36.09
2022-08-22T12:08:21.183Z,36.09
2022-08-22T12:09:17.938Z,38.06
2022-08-22T12:10:16.641Z,38.16
2022-08-22T12:11:16.584Z,37.37
2022-08-22T12:12:17.059Z,36.19
2022-08-22T12:13:16.569Z,37.65
2022-08-22T12:14:16.560Z,36.86
2022-08-22T12:15:16.543Z,36.86
2022-08-22T12:16:16.543Z,36.96
2022-08-22T12:17:22.772Z,38.43
2022-08-22T12:18:19.978Z,37.93
2022-08-22T12:19:16.505Z,38.62
2022-08-22T12:20:17.341Z,40.00
2022-08-22T12:21:16.484Z,36.45
2022-08-22T12:22:16.505Z,35.35
2022-08-22T12:23:16.462Z,36.53
2022-08-22T12:24:19.048Z,35.94
2022-08-22T12:25:16.445Z,35.05
2022-08-22T12:26:16.445Z,35.54
2022-08-22T12:27:18.495Z,35.94
2022-08-22T12:28:16.420Z,36.53
2022-08-22T12:29:16.873Z,34.94
2022-08-22T12:30:16.497Z,35.15
2022-08-22T12:31:16.384Z,35.44
2022-08-22T12:32:16.397Z,37.24
2022-08-22T12:33:22.011Z,36.43
2022-08-22T12:34:16.361Z,36.72
2022-08-22T12:35:16.341Z,37.91
2022-08-22T12:36:17.977Z,36.82
2022-08-22T12:37:16.346Z,36.53
2022-08-22T12:38:26.560Z,35.74
2022-08-22T12:39:16.312Z,35.66
2022-08-22T12:40:16.527Z,36.84
2022-08-22T12:41:28.079Z,36.46
2022-08-22T12:42:16.282Z,37.35
2022-08-22T12:43:16.279Z,37.76
2022-08-22T12:44:17.308Z,37.57
2022-08-22T12:45:17.137Z,38.64
2022-08-22T12:46:16.250Z,38.64
2022-08-22T12:47:17.223Z,37.24
2022-08-22T12:48:16.239Z,36.72
2022-08-22T12:49:16.201Z,37.41
2022-08-22T12:50:16.279Z,35.25
2022-08-22T12:51:17.550Z,36.90
2022-08-22T12:52:16.174Z,37.20
2022-08-22T12:53:20.091Z,35.51
2022-08-22T12:54:16.153Z,35.71
2022-08-22T12:55:16.141Z,35.39